createdAt,value
2018-01-30T00:00:35.467Z,101846.72
2018-01-30T00:03:05.851Z,101846.77
2018-01-30T00:05:34.979Z,101852.52
2018-01-30T00:08:04.963Z,101851.70
2018-01-30T00:10:34.071Z,101856.73
2018-01-30T00:13:03.448Z,101849.19
2018-01-30T00:15:32.595Z,101857.66
2018-01-30T00:18:02.845Z,101861.11
2018-01-30T00:20:31.963Z,101862.97
2018-01-30T00:23:01.185Z,101863.41
2018-01-30T00:25:30.583Z,101863.80
2018-01-30T00:28:00.546Z,101869.42
2018-01-30T00:30:29.718Z,101872.82
2018-01-30T00:32:58.890Z,101871.56
2018-01-30T00:35:27.986Z,101876.64
2018-01-30T00:37:57.432Z,101876.20
2018-01-30T00:40:26.558Z,101884.95
2018-01-30T00:42:56.723Z,101886.70
2018-01-30T00:45:25.829Z,101893.27
2018-01-30T00:47:54.927Z,101892.44
2018-01-30T00:50:24.324Z,101893.26
2018-01-30T00:52:53.462Z,101899.22
2018-01-30T00:55:22.634Z,101894.19
2018-01-30T00:57:52.039Z,101891.61
2018-01-30T01:00:21.332Z,101899.88
2018-01-30T01:02:50.493Z,101911.62
2018-01-30T01:05:19.988Z,101909.77
2018-01-30T01:07:49.089Z,101915.45
2018-01-30T01:10:18.229Z,101916.16
2018-01-30T01:12:48.956Z,101922.40
2018-01-30T01:15:18.117Z,101924.47
2018-01-30T01:17:48.943Z,101922.17
2018-01-30T01:20:18.916Z,101926.33
2018-01-30T01:22:48.901Z,101927.59
2018-01-30T01:25:18.044Z,101928.91
2018-01-30T01:27:47.560Z,101935.28
2018-01-30T01:30:16.653Z,101935.61
2018-01-30T01:32:46.840Z,101930.92
2018-01-30T01:35:16.484Z,101934.70
2018-01-30T01:37:45.774Z,101937.70
2018-01-30T01:40:14.904Z,101934.42
2018-01-30T01:42:44.524Z,101935.89
2018-01-30T01:45:13.729Z,101933.83
2018-01-30T01:47:42.871Z,101940.05
2018-01-30T01:50:12.291Z,101933.44
2018-01-30T01:52:41.452Z,101938.63
2018-01-30T01:55:10.665Z,101936.05
2018-01-30T01:57:40.155Z,101936.84
2018-01-30T02:00:09.246Z,101938.48
2018-01-30T02:03:08.876Z,101935.84
2018-01-30T02:05:38.592Z,101938.47
2018-01-30T02:08:07.908Z,101935.08
2018-01-30T02:10:37.043Z,101937.72
2018-01-30T02:13:06.436Z,101947.45
2018-01-30T02:15:35.517Z,101953.13
2018-01-30T02:18:05.499Z,101953.52
2018-01-30T02:20:34.951Z,101958.44
2018-01-30T02:23:04.956Z,101955.80
2018-01-30T02:25:34.077Z,101958.59
2018-01-30T02:28:04.543Z,101959.23
2018-01-30T02:30:33.660Z,101959.67
2018-01-30T02:33:03.861Z,101970.08
2018-01-30T02:35:33.561Z,101972.55
2018-01-30T02:38:03.397Z,101972.70
2018-01-30T02:40:32.496Z,101978.53
2018-01-30T02:43:02.030Z,101976.39
2018-01-30T02:45:31.134Z,101978.36
2018-01-30T02:48:00.233Z,101978.64
2018-01-30T02:50:29.609Z,101974.28
2018-01-30T02:52:58.758Z,101972.83
2018-01-30T02:55:27.870Z,101977.38
2018-01-30T02:57:57.252Z,101971.66
2018-01-30T03:00:26.424Z,101974.23
2018-01-30T03:02:55.625Z,101971.94
2018-01-30T03:05:25.056Z,101964.55
2018-01-30T03:07:54.288Z,101974.75
2018-01-30T03:10:23.436Z,101980.49
2018-01-30T03:12:52.803Z,101975.86
2018-01-30T03:15:22.081Z,101966.25
2018-01-30T03:17:51.187Z,101963.16
2018-01-30T03:20:20.575Z,101964.16
2018-01-30T03:22:49.695Z,101959.97
2018-01-30T03:25:18.779Z,101949.63
2018-01-30T03:27:49.387Z,101950.19
2018-01-30T03:30:18.472Z,101946.44
2018-01-30T03:32:47.588Z,101942.98
2018-01-30T03:35:17.004Z,101948.05
2018-01-30T03:37:46.261Z,101955.59
2018-01-30T03:40:15.383Z,101962.14
2018-01-30T03:42:44.904Z,101959.97
2018-01-30T03:45:13.963Z,101971.75
2018-01-30T03:47:43.187Z,101975.69
2018-01-30T03:50:12.565Z,101981.27
2018-01-30T03:52:41.810Z,101975.16
2018-01-30T03:55:10.947Z,101970.05
2018-01-30T03:57:40.380Z,101979.30
2018-01-30T04:00:09.651Z,101973.23
2018-01-30T04:02:38.823Z,101979.78
2018-01-30T04:05:08.185Z,101984.78
2018-01-30T04:07:37.310Z,101985.69
2018-01-30T04:10:06.963Z,101981.33
2018-01-30T04:12:36.403Z,101985.30
2018-01-30T04:15:05.810Z,101990.06
2018-01-30T04:17:34.944Z,101989.82
2018-01-30T04:20:05.440Z,101994.81
2018-01-30T04:22:35.746Z,101996.19
2018-01-30T04:25:04.994Z,101993.03
2018-01-30T04:27:34.420Z,101994.41
2018-01-30T04:30:05.615Z,101996.98
2018-01-30T04:32:34.741Z,101998.84
2018-01-30T04:35:04.465Z,102000.55
2018-01-30T04:39:56.785Z,102001.98
2018-01-30T04:42:26.616Z,102004.55
2018-01-30T04:44:55.781Z,102009.83
2018-01-30T04:47:24.865Z,102010.66
2018-01-30T04:49:55.199Z,102006.37
2018-01-30T04:52:24.310Z,102007.61
2018-01-30T04:54:53.711Z,102011.61
2018-01-30T04:57:22.811Z,102012.91
2018-01-30T04:59:51.928Z,102014.59
2018-01-30T05:02:21.312Z,102019.02
2018-01-30T05:04:50.440Z,102019.53
2018-01-30T05:07:19.916Z,102016.04
2018-01-30T05:09:49.961Z,102016.11
2018-01-30T05:12:19.076Z,102017.02
2018-01-30T05:14:48.222Z,102013.09
2018-01-30T05:17:17.366Z,102017.12
2018-01-30T05:19:46.935Z,102022.95
2018-01-30T05:22:16.013Z,102024.23
2018-01-30T05:24:45.259Z,102024.56
2018-01-30T05:27:14.654Z,102025.44
2018-01-30T05:29:43.889Z,102035.09
2018-01-30T05:32:12.989Z,102040.27
2018-01-30T05:34:42.420Z,102046.37
2018-01-30T05:37:11.559Z,102044.99
2018-01-30T05:39:40.675Z,102049.42
2018-01-30T05:42:10.122Z,102058.23
2018-01-30T05:44:39.264Z,102057.33
2018-01-30T05:47:08.381Z,102053.07
2018-01-30T05:49:37.838Z,102061.35
2018-01-30T05:52:06.959Z,102060.61
2018-01-30T05:54:36.090Z,102048.91
2018-01-30T05:57:05.491Z,102059.30
2018-01-30T05:59:34.611Z,102061.88
2018-01-30T06:02:04.855Z,102064.56
2018-01-30T06:04:34.300Z,102064.13
2018-01-30T06:07:03.856Z,102054.97
2018-01-30T06:09:32.982Z,102058.83
2018-01-30T06:12:05.271Z,102055.84
2018-01-30T06:14:34.413Z,102059.33
2018-01-30T06:17:04.202Z,102061.92
2018-01-30T06:19:33.682Z,102065.88
2018-01-30T06:22:03.389Z,102072.31
2018-01-30T06:24:32.501Z,102078.36
2018-01-30T06:27:04.280Z,102085.30
2018-01-30T06:29:33.415Z,102084.39
2018-01-30T06:32:04.806Z,102094.83
2018-01-30T06:34:35.313Z,102086.98
2018-01-30T06:37:04.928Z,102087.36
2018-01-30T06:39:34.329Z,102088.66
2018-01-30T06:42:04.443Z,102082.52
2018-01-30T06:44:33.614Z,102095.52
2018-01-30T06:47:03.667Z,102086.38
2018-01-30T06:49:32.903Z,102086.45
2018-01-30T06:52:04.862Z,102084.61
2018-01-30T06:54:34.323Z,102088.97
2018-01-30T06:57:03.962Z,102094.17
2018-01-30T06:59:33.066Z,102080.28
2018-01-30T07:02:03.130Z,102078.13
2018-01-30T07:04:32.242Z,102066.02
2018-01-30T07:07:01.976Z,102065.95
2018-01-30T07:09:31.613Z,102066.52
2018-01-30T07:12:02.200Z,102068.67
2018-01-30T07:14:31.534Z,102075.98
2018-01-30T07:17:01.571Z,102078.13
2018-01-30T07:19:30.692Z,102082.89
2018-01-30T07:22:00.085Z,102093.36
2018-01-30T07:24:29.510Z,102096.38
2018-01-30T07:26:58.838Z,102092.92
2018-01-30T07:29:28.454Z,102090.22
2018-01-30T07:32:01.061Z,102097.46
2018-01-30T07:34:30.372Z,102099.10
2018-01-30T07:36:59.606Z,102101.25
2018-01-30T07:39:28.764Z,102099.30
2018-01-30T07:41:58.406Z,102093.48
2018-01-30T07:44:27.906Z,102101.76
2018-01-30T07:46:57.327Z,102093.94
2018-01-30T07:49:26.921Z,102093.51
2018-01-30T07:51:56.356Z,102088.82
2018-01-30T07:54:25.834Z,102088.55
2018-01-30T07:56:56.008Z,102087.45
2018-01-30T07:59:25.930Z,102078.56
2018-01-30T08:01:57.094Z,102069.34
2018-01-30T08:04:26.295Z,102074.40
2018-01-30T08:06:56.192Z,102069.82
2018-01-30T08:09:25.332Z,102069.11
2018-01-30T08:11:54.519Z,102070.22
2018-01-30T08:14:23.980Z,102067.41
2018-01-30T08:16:53.098Z,102066.83
2018-01-30T08:19:22.254Z,102063.09
2018-01-30T08:21:51.719Z,102071.49
2018-01-30T08:24:20.933Z,102071.48
2018-01-30T08:26:51.424Z,102073.20
2018-01-30T08:29:21.965Z,102067.45
2018-01-30T08:31:51.091Z,102072.66
2018-01-30T08:34:20.559Z,102078.96
2018-01-30T08:36:50.000Z,102076.71
2018-01-30T08:39:19.596Z,102075.05
2018-01-30T08:41:48.745Z,102071.80
2018-01-30T08:44:18.868Z,102065.05
2018-01-30T08:46:48.308Z,102069.82
2018-01-30T08:49:17.500Z,102076.40
2018-01-30T08:51:48.001Z,102078.19
2018-01-30T08:54:17.180Z,102085.48
2018-01-30T08:56:46.977Z,102085.64
2018-01-30T08:59:16.340Z,102084.17
2018-01-30T09:01:45.848Z,102079.84
2018-01-30T09:04:15.264Z,102081.44
2018-01-30T09:06:45.925Z,102083.03
2018-01-30T09:09:15.067Z,102081.75
2018-01-30T09:11:44.836Z,102075.96
2018-01-30T09:14:13.959Z,102079.42
2018-01-30T09:16:43.207Z,102084.78
2018-01-30T09:19:13.262Z,102087.55
2018-01-30T09:21:42.411Z,102085.02
2018-01-30T09:24:11.524Z,102078.08
2018-01-30T09:26:40.979Z,102075.11
2018-01-30T09:29:10.115Z,102081.36
2018-01-30T09:31:39.321Z,102081.11
2018-01-30T09:34:08.771Z,102082.13
2018-01-30T09:36:37.937Z,102082.98
2018-01-30T09:39:07.368Z,102080.61
2018-01-30T09:41:36.766Z,102084.36
2018-01-30T09:44:06.695Z,102081.45
2018-01-30T09:46:35.819Z,102086.20
2018-01-30T09:49:06.784Z,102084.40
2018-01-30T09:51:36.207Z,102085.55
2018-01-30T09:54:06.030Z,102087.73
2018-01-30T09:56:35.508Z,102088.45
2018-01-30T09:59:04.980Z,102092.55
2018-01-30T10:01:34.106Z,102088.23
2018-01-30T10:04:04.608Z,102087.65
2018-01-30T10:06:33.728Z,102095.16
2018-01-30T10:09:03.492Z,102087.98
2018-01-30T10:11:32.638Z,102090.86
2018-01-30T10:14:02.832Z,102090.61
2018-01-30T10:16:32.281Z,102086.77
2018-01-30T10:19:02.224Z,102081.42
2018-01-30T10:21:31.336Z,102084.82
2018-01-30T10:24:01.148Z,102089.57
2018-01-30T10:26:30.344Z,102088.45
2018-01-30T10:29:00.498Z,102092.16
2018-01-30T10:31:30.071Z,102088.78
2018-01-30T10:33:59.179Z,102086.22
2018-01-30T10:36:29.258Z,102081.84
2018-01-30T10:38:58.689Z,102078.06
2018-01-30T10:41:27.816Z,102065.31
2018-01-30T10:43:56.954Z,102070.44
2018-01-30T10:46:26.437Z,102068.63
2018-01-30T10:48:55.655Z,102066.05
2018-01-30T10:51:24.810Z,102069.72
2018-01-30T10:53:54.633Z,102067.86
2018-01-30T10:56:23.783Z,102064.70
2018-01-30T10:58:53.751Z,102054.70
2018-01-30T11:01:23.165Z,102056.02
2018-01-30T11:03:52.307Z,102052.39
2018-01-30T11:06:22.057Z,102044.08
2018-01-30T11:08:51.466Z,102049.27
2018-01-30T11:11:20.607Z,102044.29
2018-01-30T11:13:49.759Z,102042.97
2018-01-30T11:16:18.919Z,102037.86
2018-01-30T11:18:48.592Z,102028.92
2018-01-30T11:21:18.172Z,102018.94
2018-01-30T11:23:48.364Z,102023.36
2018-01-30T11:26:17.702Z,102020.92
2018-01-30T11:28:47.220Z,102006.08
2018-01-30T11:31:16.398Z,102012.90
2018-01-30T11:33:45.996Z,102006.83
2018-01-30T11:36:15.176Z,102009.38
2018-01-30T11:38:44.582Z,102004.77
2018-01-30T11:41:14.099Z,102008.30
2018-01-30T11:43:43.286Z,102003.17
2018-01-30T11:46:12.410Z,101998.34
2018-01-30T11:48:41.847Z,102002.05
2018-01-30T11:51:11.151Z,101997.23
2018-01-30T11:53:40.293Z,102004.96
2018-01-30T11:56:09.989Z,101988.00
2018-01-30T11:58:39.166Z,101984.30
2018-01-30T12:01:08.345Z,101981.71
2018-01-30T12:03:37.812Z,101973.16
2018-01-30T12:06:06.992Z,101969.20
2018-01-30T12:08:36.152Z,101973.05
2018-01-30T12:11:06.642Z,101965.84
2018-01-30T12:13:35.842Z,101964.98
2018-01-30T12:16:07.451Z,101957.39
2018-01-30T12:18:36.893Z,101954.34
2018-01-30T12:21:06.364Z,101956.39
2018-01-30T12:23:35.776Z,101954.49
2018-01-30T12:26:06.250Z,101941.52
2018-01-30T12:28:35.465Z,101935.44
2018-01-30T12:31:06.253Z,101937.85
2018-01-30T12:33:36.877Z,101931.20
2018-01-30T12:36:06.265Z,101920.94
2018-01-30T12:38:35.565Z,101920.17
2018-01-30T12:41:06.361Z,101914.36
2018-01-30T12:43:35.524Z,101902.99
2018-01-30T12:46:06.575Z,101896.23
2018-01-30T12:48:35.859Z,101891.22
2018-01-30T12:51:07.530Z,101887.27
2018-01-30T12:53:37.116Z,101880.84
2018-01-30T12:56:06.286Z,101882.58
2018-01-30T12:58:35.482Z,101879.22
2018-01-30T13:01:05.374Z,101873.72
2018-01-30T13:03:34.539Z,101870.92
2018-01-30T13:06:05.416Z,101862.82
2018-01-30T13:08:34.886Z,101854.76
2018-01-30T13:11:04.530Z,101856.47
2018-01-30T13:13:33.749Z,101856.16
2018-01-30T13:16:04.565Z,101852.98
2018-01-30T13:18:33.724Z,101847.22
2018-01-30T13:21:05.243Z,101850.27
2018-01-30T13:23:34.663Z,101843.66
2018-01-30T13:26:05.184Z,101840.45
2018-01-30T13:28:34.613Z,101841.45
2018-01-30T13:31:05.256Z,101842.73
2018-01-30T13:33:35.131Z,101842.37
2018-01-30T13:36:07.938Z,101834.70
2018-01-30T13:38:37.404Z,101834.39
2018-01-30T13:41:06.630Z,101821.44
2018-01-30T13:43:35.785Z,101823.37
2018-01-30T13:46:06.093Z,101826.71
2018-01-30T13:48:35.283Z,101825.23
2018-01-30T13:51:05.549Z,101824.27
2018-01-30T13:53:34.755Z,101823.23
2018-01-30T13:56:05.878Z,101824.52
2018-01-30T13:58:36.294Z,101822.86
2018-01-30T14:01:06.624Z,101820.95
2018-01-30T14:03:36.006Z,101822.12
2018-01-30T14:06:06.265Z,101819.33
2018-01-30T14:08:35.371Z,101816.68
2018-01-30T14:11:04.965Z,101815.84
2018-01-30T14:13:34.533Z,101815.12
2018-01-30T14:16:04.542Z,101810.32
2018-01-30T14:18:33.851Z,101816.45
2018-01-30T14:21:03.650Z,101808.62
2018-01-30T14:23:32.884Z,101808.56
2018-01-30T14:26:03.252Z,101804.66
2018-01-30T14:28:32.893Z,101792.86
2018-01-30T14:31:02.606Z,101792.53
2018-01-30T14:33:31.776Z,101796.93
2018-01-30T14:36:01.677Z,101788.37
2018-01-30T14:38:31.078Z,101795.11
2018-01-30T14:41:01.573Z,101793.59
2018-01-30T14:43:31.435Z,101792.27
2018-01-30T14:46:00.656Z,101791.17
2018-01-30T14:48:29.821Z,101793.66
2018-01-30T14:51:00.414Z,101787.14
2018-01-30T14:53:29.565Z,101790.66
2018-01-30T14:55:58.877Z,101791.60
2018-01-30T14:58:28.597Z,101786.57
2018-01-30T15:00:57.779Z,101775.09
2018-01-30T15:03:26.936Z,101783.19
2018-01-30T15:08:27.073Z,101779.37
2018-01-30T15:10:56.790Z,101769.21
2018-01-30T15:13:26.245Z,101772.80
2018-01-30T15:15:55.421Z,101767.73
2018-01-30T15:18:25.248Z,101767.21
2018-01-30T15:20:55.568Z,101759.95
2018-01-30T15:23:25.065Z,101761.88
2018-01-30T15:25:55.847Z,101758.27
2018-01-30T15:28:25.496Z,101753.64
2018-01-30T15:30:54.644Z,101749.27
2018-01-30T15:33:24.154Z,101756.05
2018-01-30T15:38:17.327Z,101743.69
2018-01-30T15:40:47.455Z,101743.88
2018-01-30T15:43:18.214Z,101742.93
2018-01-30T15:45:47.983Z,101740.53
2018-01-30T15:48:17.681Z,101735.84
2018-01-30T15:50:47.019Z,101734.66
2018-01-30T15:53:16.183Z,101734.47
2018-01-30T15:55:45.981Z,101734.36
2018-01-30T15:58:15.113Z,101734.98
2018-01-30T16:00:44.325Z,101724.36
2018-01-30T16:03:13.585Z,101721.93
2018-01-30T16:05:42.778Z,101723.68
2018-01-30T16:08:11.909Z,101724.05
2018-01-30T16:10:41.418Z,101712.98
2018-01-30T16:13:10.751Z,101704.16
2018-01-30T16:15:39.975Z,101710.93
2018-01-30T16:18:09.238Z,101704.41
2018-01-30T16:20:40.454Z,101699.97
2018-01-30T16:23:10.050Z,101698.47
2018-01-30T16:25:39.327Z,101695.67
2018-01-30T16:28:09.150Z,101692.75
2018-01-30T16:30:39.008Z,101686.00
2018-01-30T16:33:08.279Z,101684.05
2018-01-30T16:35:37.516Z,101685.05
2018-01-30T16:38:07.727Z,101683.05
2018-01-30T16:40:37.264Z,101680.33
2018-01-30T16:43:06.558Z,101672.66
2018-01-30T16:45:36.233Z,101668.89
2018-01-30T16:48:08.635Z,101666.96
2018-01-30T16:50:38.050Z,101650.97
2018-01-30T16:53:08.207Z,101653.21
2018-01-30T16:55:37.386Z,101661.61
2018-01-30T16:58:07.666Z,101658.34
2018-01-30T17:00:36.862Z,101652.08
2018-01-30T17:03:06.032Z,101644.77
2018-01-30T17:05:35.629Z,101644.63
2018-01-30T17:08:07.873Z,101644.63
2018-01-30T17:10:37.796Z,101640.64
2018-01-30T17:13:07.322Z,101645.77
2018-01-30T17:15:36.482Z,101646.25
2018-01-30T17:18:06.967Z,101640.68
2018-01-30T17:20:36.876Z,101644.42
2018-01-30T17:23:06.285Z,101642.31
2018-01-30T17:25:35.418Z,101638.69
2018-01-30T17:28:05.933Z,101639.61
2018-01-30T17:30:35.113Z,101639.70
2018-01-30T17:33:04.541Z,101633.41
2018-01-30T17:35:33.988Z,101637.41
2018-01-30T17:38:04.042Z,101633.97
2018-01-30T17:40:33.186Z,101633.46
2018-01-30T17:43:02.895Z,101631.16
2018-01-30T17:45:32.210Z,101637.39
2018-01-30T17:48:03.563Z,101633.53
2018-01-30T17:50:35.223Z,101625.27
2018-01-30T17:53:04.892Z,101623.03
2018-01-30T17:55:34.608Z,101625.50
2018-01-30T17:58:05.513Z,101621.27
2018-01-30T18:00:34.754Z,101621.22
2018-01-30T18:03:06.472Z,101610.20
2018-01-30T18:05:35.911Z,101611.62
2018-01-30T18:08:05.993Z,101609.98
2018-01-30T18:10:35.530Z,101603.05
2018-01-30T18:13:04.699Z,101605.61
2018-01-30T18:15:33.898Z,101605.41
2018-01-30T18:18:05.429Z,101607.91
2018-01-30T18:20:34.647Z,101605.14
2018-01-30T18:23:04.053Z,101607.89
2018-01-30T18:25:33.214Z,101608.62
2018-01-30T18:28:03.383Z,101606.96
2018-01-30T18:30:32.917Z,101612.34
2018-01-30T18:33:02.687Z,101610.97
2018-01-30T18:35:31.844Z,101611.34
2018-01-30T18:38:06.973Z,101607.84
2018-01-30T18:40:36.852Z,101602.34
2018-01-30T18:43:06.379Z,101595.91
2018-01-30T18:45:36.044Z,101593.31
2018-01-30T18:48:06.001Z,101588.84
2018-01-30T18:50:35.421Z,101590.01
2018-01-30T18:53:06.214Z,101595.13
2018-01-30T18:55:35.378Z,101588.61
2018-01-30T18:58:05.965Z,101587.17
2018-01-30T19:00:35.136Z,101580.80
2018-01-30T19:03:04.627Z,101572.95
2018-01-30T19:05:34.674Z,101570.46
2018-01-30T19:08:06.135Z,101563.95
2018-01-30T19:10:35.513Z,101567.58
2018-01-30T19:13:06.820Z,101560.72
2018-01-30T19:15:36.003Z,101558.55
2018-01-30T19:18:07.189Z,101557.80
2018-01-30T19:20:36.671Z,101562.19
2018-01-30T19:23:06.233Z,101549.56
2018-01-30T19:25:40.143Z,101548.21
2018-01-30T19:28:10.439Z,101544.50
2018-01-30T19:30:40.448Z,101548.45
2018-01-30T19:33:10.266Z,101547.71
2018-01-30T19:38:09.683Z,101538.45
2018-01-30T19:40:39.374Z,101544.21
2018-01-30T19:43:08.569Z,101548.08
2018-01-30T19:45:37.815Z,101542.86
2018-01-30T19:48:07.738Z,101540.72
2018-01-30T19:50:36.984Z,101537.61
2018-01-30T19:53:06.351Z,101530.09
2018-01-30T19:55:36.554Z,101531.30
2018-01-30T19:58:09.426Z,101533.04
2018-01-30T20:00:40.003Z,101529.59
2018-01-30T20:03:09.417Z,101530.04
2018-01-30T20:05:39.455Z,101533.22
2018-01-30T20:08:09.284Z,101532.04
2018-01-30T20:10:39.210Z,101531.55
2018-01-30T20:13:08.515Z,101518.30
2018-01-30T20:15:38.031Z,101513.56
2018-01-30T20:18:07.204Z,101501.27
2018-01-30T20:20:36.411Z,101496.70
2018-01-30T20:26:09.379Z,101484.55
2018-01-30T20:28:39.039Z,101482.91
2018-01-30T20:31:08.712Z,101482.20
2018-01-30T20:33:37.975Z,101482.07
2018-01-30T20:36:11.768Z,101472.47
2018-01-30T20:38:40.947Z,101470.78
2018-01-30T20:41:10.124Z,101468.24
2018-01-30T20:43:39.690Z,101460.39
2018-01-30T20:46:08.912Z,101459.30
2018-01-30T20:48:38.216Z,101452.01
2018-01-30T20:51:08.038Z,101454.58
2018-01-30T20:53:37.668Z,101458.83
2018-01-30T20:56:06.961Z,101453.72
2018-01-30T20:58:38.681Z,101447.09
2018-01-30T21:01:08.769Z,101460.21
2018-01-30T21:03:37.935Z,101462.45
2018-01-30T21:06:09.618Z,101455.34
2018-01-30T21:08:38.812Z,101447.86
2018-01-30T21:11:08.043Z,101446.22
2018-01-30T21:13:45.819Z,101442.81
2018-01-30T21:16:21.829Z,101448.34
2018-01-30T21:18:56.222Z,101445.42
2018-01-30T21:21:32.138Z,101435.17
2018-01-30T21:24:03.858Z,101434.16
2018-01-30T21:26:35.621Z,101439.52
2018-01-30T21:29:05.252Z,101443.39
2018-01-30T21:31:37.747Z,101440.63
2018-01-30T21:34:10.134Z,101444.50
2018-01-30T21:36:41.683Z,101444.94
2018-01-30T21:39:11.273Z,101443.95
2018-01-30T21:41:40.573Z,101439.15
2018-01-30T21:44:11.491Z,101437.78
2018-01-30T21:46:40.903Z,101434.50
2018-01-30T21:49:10.696Z,101436.92
2018-01-30T21:51:40.214Z,101422.12
2018-01-30T21:54:09.510Z,101410.14
2018-01-30T21:56:44.850Z,101417.86
2018-01-30T21:59:16.838Z,101423.72
2018-01-30T22:01:46.218Z,101422.23
2018-01-30T22:04:15.728Z,101420.06
2018-01-30T22:06:45.047Z,101405.94
2018-01-30T22:09:14.610Z,101402.81
2018-01-30T22:11:44.414Z,101406.98
2018-01-30T22:14:14.245Z,101406.55
2018-01-30T22:16:47.782Z,101412.13
2018-01-30T22:19:17.383Z,101407.75
2018-01-30T22:21:46.615Z,101412.48
2018-01-30T22:24:15.853Z,101409.16
2018-01-30T22:26:45.404Z,101406.48
2018-01-30T22:29:14.675Z,101403.34
2018-01-30T22:31:43.965Z,101401.09
2018-01-30T22:34:13.471Z,101396.27
2018-01-30T22:36:44.332Z,101398.61
2018-01-30T22:39:13.548Z,101402.11
2018-01-30T22:41:43.294Z,101395.30
2018-01-30T22:44:12.586Z,101392.52
2018-01-30T22:46:41.795Z,101391.17
